Time;durP1;ratioP1;P1;durP2;ratioP2;P2;SDS_P1;SDS_P2;PMS_P1;PMS_P2;Temp;Humidity;BMP_temperature;BMP_pressure;BME280_temperature;BME280_humidity;BME280_pressure;Samples;Min_cycle;Max_cycle;Signal;HPM_P1;HPM_P2
2023/06/06 00:00:31;;;;;;;3.22;2.80;;;;;;;22.20;44.38;102286.56;4978630;28;20045;-84
2023/06/06 00:03:05;;;;;;;3.55;2.72;;;;;;;22.27;44.64;102306.19;4989609;28;20048;-86
2023/06/06 00:05:34;;;;;;;2.97;2.67;;;;;;;22.29;44.28;102311.31;4993778;28;20033;-84
2023/06/06 00:08:02;;;;;;;6.05;3.40;;;;;;;22.07;44.53;102286.16;4978555;28;20058;-85
2023/06/06 00:10:31;;;;;;;3.53;3.15;;;;;;;22.10;44.77;102291.19;4996826;28;20030;-87
2023/06/06 00:13:01;;;;;;;3.70;2.72;;;;;;;22.30;44.71;102318.28;4979098;28;20119;-86
2023/06/06 00:15:49;;;;;;;4.82;2.90;;;;;;;22.31;44.72;102318.13;4976539;28;20034;-84
2023/06/06 00:18:23;;;;;;;4.47;3.15;;;;;;;22.28;44.61;102317.63;4987378;28;20048;-86
2023/06/06 00:20:53;;;;;;;5.15;2.78;;;;;;;22.23;44.83;102302.16;5008593;28;20034;-86
2023/06/06 00:23:24;;;;;;;4.40;2.85;;;;;;;22.24;44.50;102306.47;4982201;28;20034;-85
2023/06/06 00:25:52;;;;;;;3.35;2.78;;;;;;;22.23;44.41;102312.78;4994538;28;20057;-85
2023/06/06 00:28:19;;;;;;;5.32;2.95;;;;;;;22.22;44.55;102308.47;4989226;28;20042;-85
2023/06/06 00:31:05;;;;;;;3.00;2.70;;;;;;;22.23;44.83;102309.28;4994662;28;20030;-86
2023/06/06 00:34:10;;;;;;;6.05;2.60;;;;;;;22.13;44.54;102293.50;4979719;28;20068;-86
2023/06/06 00:37:03;;;;;;;3.30;2.85;;;;;;;22.00;44.46;102274.50;4992174;28;20029;-85
2023/06/06 00:40:09;;;;;;;4.20;2.85;;;;;;;22.19;44.51;102310.59;5008691;28;20038;-88
2023/06/06 00:42:37;;;;;;;3.97;2.70;;;;;;;22.07;44.75;102301.25;5005593;28;20037;-85
2023/06/06 00:45:04;;;;;;;5.90;3.40;;;;;;;22.15;44.61;102318.06;4961004;28;20030;-84
2023/06/06 00:47:31;;;;;;;4.65;2.90;;;;;;;21.90;44.81;102268.47;4955658;28;20054;-84
2023/06/06 00:49:58;;;;;;;5.25;3.03;;;;;;;22.03;44.65;102298.06;4990786;28;20163;-85
2023/06/06 00:52:27;;;;;;;3.50;2.75;;;;;;;22.03;44.89;102301.53;4986200;28;20052;-81
2023/06/06 00:54:59;;;;;;;3.85;2.70;;;;;;;21.94;45.02;102288.41;4994122;28;20034;-84
2023/06/06 00:57:26;;;;;;;2.78;2.45;;;;;;;21.89;44.63;102288.03;4978031;28;20050;-85
2023/06/06 01:00:13;;;;;;;3.97;2.85;;;;;;;22.08;45.00;102319.66;4992485;28;20030;-84
2023/06/06 01:02:43;;;;;;;3.28;2.33;;;;;;;21.79;44.68;102260.81;5002532;28;20045;-84
2023/06/06 01:05:52;;;;;;;4.25;2.70;;;;;;;22.06;44.69;102316.34;4973346;28;20149;-85
2023/06/06 01:08:19;;;;;;;3.58;2.92;;;;;;;21.98;44.95;102303.03;4991264;28;20201;-82
2023/06/06 01:11:06;;;;;;;3.72;2.75;;;;;;;21.93;45.01;102302.69;4975809;28;20050;-84
2023/06/06 01:13:40;;;;;;;6.05;3.10;;;;;;;22.02;44.98;102317.63;5001705;28;20344;-82
2023/06/06 01:16:12;;;;;;;3.83;2.75;;;;;;;21.79;44.84;102285.53;4989638;28;20030;-84
2023/06/06 01:18:45;;;;;;;6.82;3.10;;;;;;;21.79;44.94;102277.56;4953415;28;20056;-83
2023/06/06 01:21:18;;;;;;;7.18;3.28;;;;;;;21.97;44.93;102312.81;4973319;28;20035;-87
2023/06/06 01:23:50;;;;;;;3.67;2.88;;;;;;;21.75;44.78;102270.94;4991085;28;20141;-84
2023/06/06 01:26:17;;;;;;;4.32;2.97;;;;;;;21.80;45.13;102276.56;5007106;28;20046;-84
2023/06/06 01:28:52;;;;;;;3.45;2.70;;;;;;;21.61;44.80;102245.00;4957484;28;20058;-85
2023/06/06 01:31:21;;;;;;;4.00;2.90;;;;;;;21.96;45.08;102297.03;5005119;28;20038;-85
2023/06/06 01:34:01;;;;;;;3.42;2.58;;;;;;;21.69;45.11;102260.94;5003471;28;20040;-85
2023/06/06 01:37:04;;;;;;;3.45;2.90;;;;;;;21.94;44.94;102304.34;4990465;28;20036;-84
2023/06/06 01:39:37;;;;;;;4.22;2.83;;;;;;;21.75;44.86;102273.56;4988655;28;20038;-85
2023/06/06 01:42:05;;;;;;;4.32;2.78;;;;;;;21.73;45.04;102277.38;4973620;28;20076;-84
2023/06/06 01:44:52;;;;;;;5.15;2.72;;;;;;;21.73;44.82;102258.81;4976264;28;20038;-83
2023/06/06 01:47:36;;;;;;;4.45;3.00;;;;;;;21.85;44.85;102300.78;4993550;28;20030;-85
2023/06/06 01:50:13;;;;;;;3.85;2.70;;;;;;;21.86;45.23;102296.31;4970382;28;20040;-85
2023/06/06 01:52:39;;;;;;;3.90;2.80;;;;;;;21.90;45.13;102305.63;4986754;28;20130;-84
2023/06/06 01:55:11;;;;;;;4.20;2.72;;;;;;;21.84;44.85;102287.69;4973086;28;20034;-83
2023/06/06 01:57:36;;;;;;;4.55;2.90;;;;;;;21.69;44.93;102276.84;4988266;28;20042;-84
2023/06/06 02:00:08;;;;;;;3.72;3.25;;;;;;;21.75;45.37;102284.19;4990421;28;20054;-84
2023/06/06 02:02:41;;;;;;;4.75;3.08;;;;;;;21.80;45.38;102292.50;4997407;28;20042;-84
2023/06/06 02:05:07;;;;;;;4.57;3.17;;;;;;;21.81;45.20;102299.44;4976715;28;20038;-85
2023/06/06 02:07:34;;;;;;;3.28;2.45;;;;;;;21.77;45.14;102300.75;4988423;28;20096;-84
2023/06/06 02:10:08;;;;;;;5.22;2.92;;;;;;;21.75;45.07;102296.59;4969849;28;20033;-83
2023/06/06 02:12:56;;;;;;;4.25;2.90;;;;;;;21.63;45.08;102270.34;4959910;28;20097;-83
2023/06/06 02:15:26;;;;;;;4.88;2.90;;;;;;;21.59;45.43;102266.34;5009428;28;20034;-83
2023/06/06 02:17:53;;;;;;;3.15;2.58;;;;;;;21.69;44.98;102288.28;4988757;28;20034;-80
2023/06/06 02:20:19;;;;;;;4.18;2.83;;;;;;;21.55;45.12;102261.53;4974558;28;20041;-83
2023/06/06 02:22:46;;;;;;;3.97;2.60;;;;;;;21.78;45.26;102289.16;4990200;28;20038;-84
2023/06/06 02:25:13;;;;;;;3.72;2.75;;;;;;;21.76;45.37;102291.16;4990547;28;20065;-84
2023/06/06 02:27:39;;;;;;;3.63;2.70;;;;;;;21.74;45.25;102293.13;4980003;28;20034;-83
2023/06/06 02:30:09;;;;;;;4.18;2.97;;;;;;;21.40;45.33;102245.38;5004628;28;20054;-85
2023/06/06 02:32:35;;;;;;;3.83;2.45;;;;;;;21.57;45.21;102281.59;4976234;28;20026;-84
2023/06/06 02:35:03;;;;;;;5.18;3.10;;;;;;;21.45;45.26;102258.97;4990796;28;20046;-84
2023/06/06 02:37:33;;;;;;;5.35;2.97;;;;;;;21.62;45.49;102286.41;4992210;28;20043;-84
2023/06/06 02:40:21;;;;;;;4.60;3.00;;;;;;;21.58;45.36;102280.59;4983332;28;20780;-84
2023/06/06 02:42:47;;;;;;;4.93;2.92;;;;;;;21.46;45.43;102265.09;4991954;28;20101;-84
2023/06/06 02:45:32;;;;;;;3.53;2.80;;;;;;;21.32;45.65;102248.78;4992718;28;20072;-84
2023/06/06 02:47:59;;;;;;;5.00;2.95;;;;;;;21.58;45.49;102288.56;4999532;28;20060;-85
2023/06/06 02:50:28;;;;;;;4.25;3.00;;;;;;;21.65;45.58;102299.34;5011452;28;20061;-85
2023/06/06 02:52:55;;;;;;;4.43;3.00;;;;;;;21.42;45.57;102267.25;4991617;28;20041;-86
2023/06/06 02:55:45;;;;;;;4.32;2.63;;;;;;;21.63;45.20;102307.47;4960303;28;20038;-83
2023/06/06 02:58:32;;;;;;;4.15;3.05;;;;;;;21.65;45.23;102297.53;4994359;28;20036;-85
2023/06/06 03:01:02;;;;;;;4.07;2.70;;;;;;;21.61;45.23;102298.00;5022651;28;20053;-85
2023/06/06 03:03:29;;;;;;;3.55;2.72;;;;;;;21.32;45.34;102256.72;4982362;28;20069;-86
2023/06/06 03:06:36;;;;;;;5.60;3.05;;;;;;;21.46;45.33;102275.72;4979949;28;20533;-84
2023/06/06 03:09:24;;;;;;;4.75;2.97;;;;;;;21.57;45.70;102294.00;5009313;28;20042;-86
2023/06/06 03:11:51;;;;;;;3.78;2.95;;;;;;;21.53;45.44;102289.97;5012251;28;20064;-86
2023/06/06 03:14:18;;;;;;;4.05;2.63;;;;;;;21.38;45.39;102260.59;4994533;28;20220;-85
2023/06/06 03:16:47;;;;;;;6.05;3.00;;;;;;;21.46;45.40;102273.88;4982187;28;20080;-86
2023/06/06 03:19:14;;;;;;;4.53;2.92;;;;;;;21.63;45.39;102296.03;4982406;28;20042;-86
2023/06/06 03:21:43;;;;;;;7.05;3.40;;;;;;;21.42;45.62;102273.38;4976472;28;20037;-84
2023/06/06 03:24:29;;;;;;;3.78;2.50;;;;;;;21.57;45.26;102299.31;4982918;28;20057;-84
2023/06/06 03:26:59;;;;;;;4.13;2.95;;;;;;;21.51;45.69;102295.44;4980067;28;20045;-85
2023/06/06 03:29:26;;;;;;;4.00;2.90;;;;;;;21.49;45.26;102299.25;4992462;28;20022;-86
2023/06/06 03:31:55;;;;;;;5.72;2.70;;;;;;;21.47;45.23;102286.16;4995261;28;20040;-84
2023/06/06 03:34:25;;;;;;;4.47;2.85;;;;;;;21.31;45.44;102272.78;4991898;28;20030;-84
2023/06/06 03:36:54;;;;;;;4.65;3.25;;;;;;;21.56;45.47;102309.09;4976921;28;20551;-83
2023/06/06 03:39:19;;;;;;;5.00;2.92;;;;;;;21.34;45.42;102272.47;4989779;28;20068;-84
2023/06/06 03:42:05;;;;;;;3.95;2.65;;;;;;;21.06;45.39;102222.25;4990114;28;20038;-85
2023/06/06 03:44:51;;;;;;;4.05;2.53;;;;;;;21.46;45.43;102292.44;5005703;28;20042;-86
2023/06/06 03:47:37;;;;;;;3.90;2.80;;;;;;;21.54;45.59;102294.31;4974805;28;20104;-85
2023/06/06 03:50:06;;;;;;;3.85;2.92;;;;;;;21.33;45.75;102268.97;4994004;28;20038;-84
2023/06/06 03:52:53;;;;;;;4.57;2.85;;;;;;;21.23;45.67;102262.09;5007945;28;20047;-85
2023/06/06 03:55:44;;;;;;;3.67;2.90;;;;;;;21.17;45.52;102237.03;5011633;28;20033;-87
2023/06/06 03:58:33;;;;;;;3.72;2.53;;;;;;;21.53;45.37;102303.25;4998310;28;20041;-86
2023/06/06 04:01:01;;;;;;;4.25;2.85;;;;;;;21.48;45.27;102294.94;5011353;28;20038;-86
2023/06/06 04:03:44;;;;;;;4.20;2.90;;;;;;;21.45;45.38;102290.78;4981335;28;20058;-82
2023/06/06 04:06:11;;;;;;;4.38;2.72;;;;;;;21.39;45.33;102271.03;4992381;28;20242;-84
2023/06/06 04:08:41;;;;;;;3.70;3.00;;;;;;;21.40;45.43;102275.34;4974904;28;20034;-85
2023/06/06 04:11:35;;;;;;;4.17;2.93;;;;;;;21.39;45.43;102273.69;4973562;28;20042;-85
2023/06/06 04:14:03;;;;;;;3.72;2.85;;;;;;;21.52;45.34;102306.88;4991607;28;20034;-85
2023/06/06 04:16:49;;;;;;;3.47;2.58;;;;;;;21.55;45.44;102311.91;4990216;28;20046;-86
2023/06/06 04:19:15;;;;;;;4.95;2.80;;;;;;;21.56;45.37;102300.31;5020195;28;20037;-84
2023/06/06 04:21:46;;;;;;;3.70;2.58;;;;;;;21.42;45.08;102285.78;4973649;28;20026;-85
2023/06/06 04:24:13;;;;;;;3.40;2.78;;;;;;;21.56;45.04;102305.59;4967581;28;20500;-85
2023/06/06 04:26:41;;;;;;;5.00;3.03;;;;;;;21.51;45.42;102294.63;4985324;28;20034;-83
2023/06/06 04:29:13;;;;;;;3.22;2.70;;;;;;;21.19;45.39;102258.09;4968655;28;20140;-83
2023/06/06 04:32:00;;;;;;;3.40;2.40;;;;;;;21.53;45.14;102309.38;4953721;28;20173;-85
2023/06/06 04:34:29;;;;;;;4.60;2.70;;;;;;;21.53;45.34;102304.06;5008670;28;20056;-85
2023/06/06 04:37:06;;;;;;;4.45;3.05;;;;;;;21.53;45.37;102306.72;4981067;28;20044;-86
2023/06/06 04:39:43;;;;;;;3.55;2.80;;;;;;;21.46;45.35;102291.59;4979303;28;20125;-85
2023/06/06 04:42:45;;;;;;;4.78;3.00;;;;;;;21.47;45.31;102288.81;4974945;28;20038;-86
2023/06/06 04:45:13;;;;;;;3.17;2.38;;;;;;;21.37;45.07;102267.72;5002689;28;20038;-87
2023/06/06 04:47:59;;;;;;;3.70;2.42;;;;;;;21.38;45.42;102260.59;4971411;28;20031;-86
2023/06/06 04:50:29;;;;;;;4.10;2.90;;;;;;;21.55;44.93;102286.22;5001601;28;20305;-85
2023/06/06 04:53:02;;;;;;;5.57;2.78;;;;;;;21.49;45.12;102276.22;4975844;28;20037;-83
2023/06/06 04:55:30;;;;;;;4.88;2.70;;;;;;;21.55;45.10;102293.34;4962872;28;20045;-86
2023/06/06 04:58:14;;;;;;;4.38;2.72;;;;;;;21.36;45.31;102263.41;4978018;28;20043;-84
2023/06/06 05:00:45;;;;;;;3.80;2.83;;;;;;;21.48;45.41;102281.69;4976462;28;20049;-85
2023/06/06 05:03:37;;;;;;;4.97;3.03;;;;;;;21.56;45.13;102290.53;4978717;28;20046;-84
2023/06/06 05:06:04;;;;;;;4.38;3.03;;;;;;;21.36;45.11;102265.19;4995002;28;20042;-84
2023/06/06 05:08:50;;;;;;;4.13;2.78;;;;;;;21.53;45.21;102292.63;4975247;28;20586;-85
2023/06/06 05:11:41;;;;;;;4.40;3.00;;;;;;;21.43;45.35;102284.81;5004368;28;20038;-86
2023/06/06 05:14:09;;;;;;;3.53;2.88;;;;;;;21.51;45.13;102294.63;4996266;28;20038;-87
2023/06/06 05:16:58;;;;;;;5.10;2.97;;;;;;;21.36;45.41;102273.13;4986283;28;20046;-86
2023/06/06 05:19:49;;;;;;;3.70;3.03;;;;;;;21.50;44.96;102295.59;5004770;28;20041;-86
2023/06/06 05:22:15;;;;;;;4.57;2.75;;;;;;;21.57;45.06;102312.56;4998200;28;20070;-85
2023/06/06 05:24:42;;;;;;;4.85;2.83;;;;;;;21.57;45.24;102309.91;4990620;28;20041;-83
2023/06/06 05:27:12;;;;;;;3.65;2.63;;;;;;;21.49;45.07;102301.88;4957988;28;20040;-84
2023/06/06 05:29:38;;;;;;;2.85;2.53;;;;;;;21.58;45.12;102308.94;4997098;28;20049;-84
2023/06/06 05:32:24;;;;;;;4.40;2.72;;;;;;;21.27;45.11;102255.53;4992635;28;20033;-82
2023/06/06 05:34:51;;;;;;;4.03;3.03;;;;;;;21.59;45.25;102295.50;4996544;28;20038;-84
2023/06/06 05:37:18;;;;;;;5.32;3.13;;;;;;;21.53;44.94;102297.94;4961060;28;20065;-85
2023/06/06 05:40:04;;;;;;;4.10;2.90;;;;;;;21.53;44.86;102288.16;4953655;28;20050;-84
2023/06/06 05:42:31;;;;;;;5.60;2.80;;;;;;;21.60;45.15;102310.44;4991303;28;20085;-84
2023/06/06 05:44:56;;;;;;;3.85;2.70;;;;;;;21.26;45.31;102254.72;4990815;28;20036;-83
2023/06/06 05:47:23;;;;;;;5.25;2.90;;;;;;;21.39;44.98;102272.84;5005814;28;20481;-85
2023/06/06 05:49:50;;;;;;;4.43;2.95;;;;;;;21.53;44.91;102304.06;4991031;28;20053;-86
2023/06/06 05:52:18;;;;;;;4.07;2.92;;;;;;;21.62;44.92;102310.28;4976202;28;20030;-81
2023/06/06 05:54:44;;;;;;;5.55;3.05;;;;;;;21.52;45.05;102302.41;4987973;28;20057;-84
2023/06/06 05:57:20;;;;;;;4.88;2.97;;;;;;;21.63;45.24;102317.25;4992377;28;20049;-84
2023/06/06 05:59:50;;;;;;;4.32;3.08;;;;;;;21.54;45.01;102307.56;4976525;28;20038;-84
2023/06/06 06:02:16;;;;;;;;;;;;;;;21.60;44.89;102314.91;4981388;28;20038;-85
2023/06/06 06:04:42;;;;;;;5.80;3.00;;;;;;;21.46;45.13;102292.44;4989570;28;19928;-85
2023/06/06 06:07:28;;;;;;;4.03;2.75;;;;;;;21.61;45.14;102311.25;4965734;28;20117;-86
2023/06/06 06:09:56;;;;;;;6.47;2.83;;;;;;;21.61;44.88;102314.75;4986117;28;20062;-86
2023/06/06 06:12:23;;;;;;;6.78;3.30;;;;;;;21.44;44.90;102272.38;4955925;28;20038;-83
2023/06/06 06:14:49;;;;;;;3.25;2.63;;;;;;;21.45;44.98;102276.69;4956277;28;20061;-84
2023/06/06 06:17:15;;;;;;;3.35;2.72;;;;;;;21.19;44.94;102228.97;4974794;28;20066;-84
2023/06/06 06:19:48;;;;;;;4.35;3.28;;;;;;;21.59;45.24;102295.50;4974196;28;20049;-85
2023/06/06 06:22:16;;;;;;;5.72;3.45;;;;;;;21.50;44.92;102285.00;4975090;28;20045;-86
2023/06/06 06:24:42;;;;;;;3.85;2.78;;;;;;;21.38;44.99;102261.44;4973001;28;20047;-85
2023/06/06 06:27:09;;;;;;;4.78;3.42;;;;;;;21.53;44.71;102280.22;4957506;28;20528;-83
2023/06/06 06:29:35;;;;;;;5.65;3.50;;;;;;;21.71;44.88;102312.81;4962745;28;20042;-84
2023/06/06 06:32:01;;;;;;;5.20;2.88;;;;;;;21.56;44.87;102292.34;4961597;28;20034;-83
2023/06/06 06:34:27;;;;;;;3.40;2.78;;;;;;;21.57;44.77;102284.25;4970301;28;20062;-84
2023/06/06 06:36:52;;;;;;;5.13;2.97;;;;;;;21.52;44.76;102278.56;4974024;28;20038;-83
2023/06/06 06:39:20;;;;;;;5.95;3.08;;;;;;;21.80;44.98;102320.81;4955417;28;20045;-83
2023/06/06 06:41:46;;;;;;;5.60;3.13;;;;;;;21.68;44.81;102299.03;4940221;28;20027;-83
2023/06/06 06:44:14;;;;;;;4.32;3.17;;;;;;;21.83;44.67;102316.03;4953829;28;20035;-84
2023/06/06 06:46:43;;;;;;;4.68;2.97;;;;;;;21.84;44.55;102325.66;4963091;28;20030;-85
2023/06/06 06:49:16;;;;;;;4.28;3.10;;;;;;;21.71;44.67;102301.38;4975515;28;20215;-84
2023/06/06 06:51:43;;;;;;;4.65;3.17;;;;;;;21.83;44.72;102312.56;4985358;28;20546;-81
2023/06/06 06:54:19;;;;;;;5.38;3.13;;;;;;;21.92;44.58;102319.59;4971664;28;20198;-85
2023/06/06 06:56:45;;;;;;;4.47;3.20;;;;;;;21.95;44.55;102324.56;4969863;28;20027;-81
2023/06/06 06:59:13;;;;;;;6.28;3.33;;;;;;;21.81;44.33;102298.63;4967795;28;20058;-81
2023/06/06 07:01:40;;;;;;;6.50;2.80;;;;;;;21.87;44.27;102303.28;4984129;28;20039;-81
2023/06/06 07:04:06;;;;;;;6.15;3.20;;;;;;;21.81;44.29;102283.53;4972209;28;20038;-81
2023/06/06 07:06:36;;;;;;;4.53;3.40;;;;;;;21.79;44.23;102282.03;4970033;28;20042;-84
2023/06/06 07:09:04;;;;;;;4.97;2.88;;;;;;;21.88;44.02;102281.06;5004585;28;20045;-81
2023/06/06 07:11:30;;;;;;;3.80;2.88;;;;;;;22.14;43.99;102318.22;4990388;28;20089;-82
2023/06/06 07:13:56;;;;;;;4.47;2.92;;;;;;;22.21;44.41;102320.06;5021430;28;20049;-80
2023/06/06 07:16:23;;;;;;;5.45;3.40;;;;;;;21.84;44.11;102254.06;5019890;28;20042;-83
2023/06/06 07:18:51;;;;;;;4.32;3.30;;;;;;;22.23;44.09;102318.09;5004577;28;20042;-85
2023/06/06 07:21:19;;;;;;;5.35;3.10;;;;;;;22.07;44.10;102288.81;5005125;28;20034;-82
2023/06/06 07:23:47;;;;;;;4.80;3.00;;;;;;;22.27;43.93;102313.31;4994763;28;20044;-82
2023/06/06 07:26:16;;;;;;;6.82;3.30;;;;;;;22.35;43.97;102329.25;5007599;28;20038;-82
2023/06/06 07:28:43;;;;;;;5.68;3.20;;;;;;;22.25;43.76;102309.97;5008035;28;20046;-81
2023/06/06 07:31:09;;;;;;;6.00;3.20;;;;;;;22.30;44.06;102307.69;5027196;28;20400;-81
2023/06/06 07:33:35;;;;;;;5.25;3.15;;;;;;;22.38;44.04;102317.47;5006564;28;20049;-82
2023/06/06 07:36:00;;;;;;;4.72;3.15;;;;;;;22.40;44.01;102316.31;5008297;28;20048;-84
2023/06/06 07:38:26;;;;;;;5.45;3.30;;;;;;;22.34;43.89;102303.69;5005126;28;20044;-87
2023/06/06 07:40:51;;;;;;;5.85;3.40;;;;;;;22.24;43.99;102282.59;5005869;28;20046;-83
2023/06/06 07:43:17;;;;;;;8.73;3.72;;;;;;;22.40;44.05;102299.56;4975818;28;20306;-83
2023/06/06 07:45:43;;;;;;;5.63;3.13;;;;;;;22.30;43.77;102284.63;5005228;28;20050;-83
2023/06/06 07:48:08;;;;;;;3.60;2.97;;;;;;;22.31;44.13;102285.44;4984741;28;20227;-83
2023/06/06 07:50:34;;;;;;;5.60;2.92;;;;;;;22.55;43.83;102313.88;5009680;28;20041;-81
2023/06/06 07:53:00;;;;;;;4.25;2.95;;;;;;;22.48;44.02;102295.13;4974717;28;20076;-85
2023/06/06 07:55:26;;;;;;;5.40;3.33;;;;;;;22.26;44.06;102255.88;5009270;28;20037;-85
2023/06/06 07:57:52;;;;;;;4.78;3.13;;;;;;;22.63;43.85;102315.75;4977269;28;20037;-86
2023/06/06 08:00:18;;;;;;;5.80;3.67;;;;;;;22.66;43.80;102324.22;5027236;28;20046;-84
2023/06/06 08:02:43;;;;;;;6.55;3.10;;;;;;;22.59;43.78;102312.56;5028145;28;20053;-80
2023/06/06 08:05:10;;;;;;;4.47;3.00;;;;;;;22.58;43.77;102302.94;5019494;28;20030;-83
2023/06/06 08:07:38;;;;;;;5.20;3.42;;;;;;;22.66;43.96;102310.94;4992164;28;20041;-84
2023/06/06 08:10:08;;;;;;;4.18;3.08;;;;;;;22.69;43.85;102312.44;5002489;28;20038;-84
2023/06/06 08:12:34;;;;;;;7.10;3.28;;;;;;;22.66;44.04;102302.13;5006503;28;20044;-82
2023/06/06 08:15:00;;;;;;;4.95;3.42;;;;;;;22.55;43.75;102285.50;4994798;28;20037;-81
2023/06/06 08:17:26;;;;;;;12.50;2.88;;;;;;;22.65;43.82;102293.34;5022349;28;20089;-82
2023/06/06 08:19:51;;;;;;;7.10;3.35;;;;;;;22.69;43.74;102302.63;4979200;28;20042;-82
2023/06/06 08:22:17;;;;;;;6.85;3.45;;;;;;;22.73;44.02;102305.78;4999903;28;20049;-82
2023/06/06 08:24:43;;;;;;;5.00;3.70;;;;;;;22.83;43.54;102322.44;5019136;28;20141;-82
2023/06/06 08:27:10;;;;;;;4.20;3.60;;;;;;;22.84;43.68;102322.28;5005216;28;20044;-82
2023/06/06 08:29:35;;;;;;;6.63;3.70;;;;;;;;;;5007938;28;20069;-83
2023/06/06 08:32:01;;;;;;;5.65;3.30;;;;;;;22.86;43.79;102325.59;5022956;28;20038;-83
2023/06/06 08:34:28;;;;;;;4.32;3.22;;;;;;;22.80;43.67;102309.44;4993911;28;20068;-80
2023/06/06 08:36:54;;;;;;;6.13;3.60;;;;;;;22.90;43.59;102323.44;4990926;28;20033;-84
2023/06/06 08:39:21;;;;;;;7.70;3.10;;;;;;;22.90;43.61;102316.31;4986958;28;20036;-83
2023/06/06 08:41:54;;;;;;;4.63;3.13;;;;;;;22.92;43.85;102321.44;5006208;28;20040;-82
2023/06/06 08:44:21;;;;;;;6.03;3.88;;;;;;;22.87;43.50;102303.34;5007168;28;20034;-84
2023/06/06 08:46:49;;;;;;;6.50;3.72;;;;;;;22.84;43.48;102301.03;5009180;28;20064;-83
2023/06/06 08:49:18;;;;;;;6.82;3.88;;;;;;;22.69;43.65;102280.56;5023716;28;20046;-83
2023/06/06 08:51:46;;;;;;;4.80;3.45;;;;;;;22.75;43.45;102282.56;5007393;28;20037;-82
2023/06/06 08:54:12;;;;;;;8.35;4.03;;;;;;;22.94;43.51;102314.16;4987564;28;20054;-81
2023/06/06 08:56:41;;;;;;;21.80;4.05;;;;;;;22.87;43.50;102300.72;4973567;28;20137;-82
2023/06/06 08:59:07;;;;;;;5.28;3.60;;;;;;;22.88;43.76;102310.34;5010002;28;20058;-84
2023/06/06 09:01:37;;;;;;;8.43;3.75;;;;;;;22.76;43.73;102282.38;5006297;28;20061;-82
2023/06/06 09:04:03;;;;;;;7.45;3.70;;;;;;;22.97;43.45;102316.47;5003831;28;20030;-82
2023/06/06 09:06:29;;;;;;;5.30;3.88;;;;;;;22.95;43.43;102309.66;5006060;28;20041;-81
2023/06/06 09:08:55;;;;;;;6.18;4.03;;;;;;;22.85;43.47;102302.69;5020849;28;20034;-82
2023/06/06 09:11:21;;;;;;;5.40;3.97;;;;;;;22.79;43.66;102289.19;5004852;28;20031;-82
2023/06/06 09:13:47;;;;;;;5.63;3.92;;;;;;;22.90;43.47;102304.84;5006288;28;20064;-81
2023/06/06 09:16:15;;;;;;;5.38;4.03;;;;;;;22.85;43.60;102296.56;5022570;28;20045;-83
2023/06/06 09:18:42;;;;;;;5.55;4.07;;;;;;;22.97;43.65;102321.78;5023056;28;20057;-84
2023/06/06 09:21:08;;;;;;;9.35;3.80;;;;;;;22.83;43.55;102298.53;5010694;28;20050;-83
2023/06/06 09:23:34;;;;;;;5.72;3.70;;;;;;;22.88;43.55;102304.19;5007976;28;20034;-81
2023/06/06 09:26:00;;;;;;;5.78;3.83;;;;;;;22.82;43.52;102291.56;5021714;28;20068;-81
2023/06/06 09:28:39;;;;;;;6.40;4.13;;;;;;;22.85;43.60;102300.03;5009373;28;20095;-83
2023/06/06 09:31:29;;;;;;;6.32;3.90;;;;;;;23.01;43.33;102325.78;5003385;28;20025;-83
2023/06/06 09:33:57;;;;;;;6.15;3.80;;;;;;;22.90;43.54;102303.03;5023705;28;20030;-83
2023/06/06 09:36:24;;;;;;;4.55;3.33;;;;;;;22.91;43.66;102309.16;5007637;28;20053;-83
2023/06/06 09:38:55;;;;;;;7.68;4.30;;;;;;;22.92;43.71;102313.47;5003473;28;20037;-82
2023/06/06 09:41:23;;;;;;;6.78;4.13;;;;;;;22.85;43.75;102301.88;4991298;28;20125;-83
2023/06/06 09:43:49;;;;;;;5.38;3.72;;;;;;;22.84;43.57;102300.22;5017960;28;20049;-81
2023/06/06 09:46:16;;;;;;;6.10;4.70;;;;;;;22.90;43.56;102300.38;5008527;28;20038;-82
2023/06/06 09:48:42;;;;;;;6.50;4.13;;;;;;;22.93;43.59;102312.47;4991587;28;20032;-82
2023/06/06 09:51:12;;;;;;;5.65;3.65;;;;;;;22.88;43.68;102297.06;5007953;28;20046;-83
2023/06/06 09:53:37;;;;;;;6.40;4.20;;;;;;;22.87;43.74;102297.22;4989404;28;20060;-83
2023/06/06 09:56:04;;;;;;;7.85;4.30;;;;;;;22.76;43.48;102279.72;4990310;28;20037;-83
2023/06/06 09:58:34;;;;;;;7.13;3.72;;;;;;;22.72;43.56;102275.75;5006150;28;20048;-82
2023/06/06 10:01:02;;;;;;;5.32;3.80;;;;;;;22.94;43.66;102313.31;5025002;28;20041;-83
2023/06/06 10:03:30;;;;;;;7.20;4.07;;;;;;;22.78;43.72;102287.53;5021629;28;20049;-82
2023/06/06 10:05:56;;;;;;;7.50;4.78;;;;;;;22.76;43.58;102273.59;4979854;28;20053;-82
2023/06/06 10:08:23;;;;;;;5.47;4.05;;;;;;;22.89;43.60;102300.53;5004233;28;20050;-83
2023/06/06 10:10:49;;;;;;;6.32;4.43;;;;;;;22.89;43.79;102304.03;5012205;28;20479;-84
2023/06/06 10:13:19;;;;;;;7.28;3.97;;;;;;;22.90;43.81;102308.34;5007272;28;20056;-84
2023/06/06 10:15:45;;;;;;;6.93;3.83;;;;;;;22.86;43.74;102306.19;5007672;28;20172;-83
2023/06/06 10:18:10;;;;;;;7.82;4.45;;;;;;;;;;5007581;28;20046;-83
2023/06/06 10:20:37;;;;;;;4.75;3.75;;;;;;;22.90;43.63;102303.03;4996027;28;20057;-84
2023/06/06 10:23:03;;;;;;;6.80;4.28;;;;;;;22.90;43.81;102303.03;5005085;28;20036;-82
2023/06/06 10:25:30;;;;;;;6.35;4.18;;;;;;;22.82;43.82;102291.56;5016871;28;20463;-80
2023/06/06 10:28:05;;;;;;;5.72;4.35;;;;;;;22.78;43.86;102290.19;5023509;28;20403;-81
2023/06/06 10:30:42;;;;;;;7.05;4.10;;;;;;;22.86;43.59;102301.69;5018654;28;20026;-84
2023/06/06 10:33:34;;;;;;;7.65;4.18;;;;;;;22.78;43.97;102295.50;5007528;28;20049;-81
2023/06/06 10:36:04;;;;;;;7.28;3.97;;;;;;;22.84;43.85;102303.69;5035640;28;20033;-81
2023/06/06 10:38:33;;;;;;;7.40;4.32;;;;;;;22.64;43.78;102266.97;5006988;28;20045;-83
2023/06/06 10:40:59;;;;;;;6.43;4.03;;;;;;;22.76;44.04;102290.34;5005321;28;20037;-83
2023/06/06 10:43:34;;;;;;;6.80;4.28;;;;;;;22.83;44.07;102301.22;4991796;28;20465;-82
2023/06/06 10:46:01;;;;;;;7.25;3.92;;;;;;;22.78;43.77;102296.31;5005903;28;20570;-83
2023/06/06 10:48:43;;;;;;;8.15;4.18;;;;;;;22.71;43.80;102282.06;5010787;28;20034;-83
2023/06/06 10:51:24;;;;;;;6.47;4.05;;;;;;;22.81;43.89;102298.69;5022523;28;20088;-83
2023/06/06 10:54:19;;;;;;;6.43;3.80;;;;;;;22.81;43.81;102298.69;5028216;28;20041;-83
2023/06/06 10:56:48;;;;;;;5.63;3.83;;;;;;;22.59;43.83;102262.13;4987863;28;20046;-83
2023/06/06 10:59:15;;;;;;;4.82;3.78;;;;;;;22.79;44.05;102294.50;5002359;28;20052;-84
2023/06/06 11:01:42;;;;;;;6.03;3.95;;;;;;;22.71;43.80;102287.38;5010918;28;20053;-83
2023/06/06 11:04:18;;;;;;;7.93;4.20;;;;;;;22.85;43.83;102301.88;5008850;28;20049;-82
2023/06/06 11:06:45;;;;;;;5.20;4.00;;;;;;;22.71;43.58;102284.72;4995284;28;20050;-83
2023/06/06 11:09:22;;;;;;;5.97;3.83;;;;;;;22.83;44.08;102307.34;5021166;28;20042;-82
2023/06/06 11:11:50;;;;;;;6.13;4.25;;;;;;;22.77;44.07;102294.66;4995974;28;20041;-82
2023/06/06 11:14:21;;;;;;;6.80;3.97;;;;;;;22.78;43.97;102298.97;4989484;28;20030;-81
2023/06/06 11:16:46;;;;;;;5.88;4.00;;;;;;;22.82;43.86;102300.38;5007256;28;20034;-82
2023/06/06 11:19:17;;;;;;;4.80;3.65;;;;;;;22.83;44.01;102307.34;5011609;28;20060;-82
2023/06/06 11:21:47;;;;;;;7.03;4.22;;;;;;;22.71;43.93;102283.88;4990471;28;20038;-83
2023/06/06 11:24:14;;;;;;;6.45;4.10;;;;;;;22.77;43.99;102294.66;5007748;28;20056;-80
2023/06/06 11:26:41;;;;;;;6.22;4.28;;;;;;;22.65;44.24;102277.41;5004017;28;20018;-82
2023/06/06 11:29:08;;;;;;;6.65;4.38;;;;;;;22.60;43.92;102269.91;5009344;28;20037;-83
2023/06/06 11:31:38;;;;;;;8.10;3.72;;;;;;;22.72;44.27;102282.88;5041686;28;20025;-83
2023/06/06 11:34:06;;;;;;;6.32;4.15;;;;;;;22.75;43.85;102293.19;5008873;28;20036;-82
2023/06/06 11:36:33;;;;;;;7.78;4.20;;;;;;;22.72;44.16;102283.72;5028057;28;20030;-80
2023/06/06 11:39:04;;;;;;;6.95;3.72;;;;;;;22.71;44.08;102274.09;5028344;28;20050;-83
2023/06/06 11:41:33;;;;;;;6.38;4.18;;;;;;;22.74;43.96;102279.06;5027691;28;20147;-82
2023/06/06 11:43:59;;;;;;;7.22;4.05;;;;;;;22.73;43.97;102276.59;5022162;28;20105;-84
2023/06/06 11:46:25;;;;;;;6.00;3.72;;;;;;;22.78;44.21;102285.69;5020168;28;20077;-82